Time;durP1;ratioP1;P1;durP2;ratioP2;P2;SDS_P1;SDS_P2;PMS_P1;PMS_P2;Temp;Humidity;BMP_temperature;BMP_pressure;BME280_temperature;BME280_humidity;BME280_pressure;Samples;Min_cycle;Max_cycle;Signal;HPM_P1;HPM_P2
2022/02/11 00:05:18;;;;;;;;;104.50;95.00;13.40;43.80;;;;;;4916559;29;8801;-65
2022/02/11 00:07:10;;;;;;;;;93.50;89.25;13.20;44.20;;;;;;4913771;29;8835;-65
2022/02/11 00:09:37;;;;;;;;;96.75;92.50;13.30;44.30;;;;;;4924587;29;8799;-65
2022/02/11 00:12:03;;;;;;;;;105.00;98.25;13.50;44.00;;;;;;4935268;29;8787;-66
2022/02/11 00:14:33;;;;;;;;;105.25;95.00;13.50;43.70;;;;;;4943345;28;8776;-65
2022/02/11 00:16:59;;;;;;;;;97.00;92.50;13.40;44.60;;;;;;4956586;28;8808;-65
2022/02/11 00:19:25;;;;;;;;;102.00;94.00;13.60;43.40;;;;;;4956478;28;8764;-65
2022/02/11 00:21:51;;;;;;;;;108.50;99.50;13.60;43.30;;;;;;4955236;28;8784;-65
2022/02/11 00:24:17;;;;;;;;;100.25;91.50;13.60;43.30;;;;;;4956363;28;8817;-64
2022/02/11 00:26:51;;;;;;;;;94.25;88.25;13.70;43.30;;;;;;4956327;28;8780;-63
2022/02/11 00:34:20;;;;;;;;;99.25;92.75;13.50;43.20;;;;;;4956291;28;8811;-65
2022/02/11 01:05:48;;;;;;;;;91.25;87.25;13.40;43.40;;;;;;4934792;29;8779;-64
2022/02/11 01:08:14;;;;;;;;;100.00;90.50;13.50;43.30;;;;;;4934779;29;8871;-65
2022/02/11 01:10:40;;;;;;;;;98.25;85.25;13.60;43.20;;;;;;4934703;29;8779;-65
2022/02/11 01:13:06;;;;;;;;;94.50;90.50;13.60;43.00;;;;;;4934803;29;8810;-66
2022/02/11 01:15:34;;;;;;;;;129.75;121.00;13.60;43.10;;;;;;4934711;29;8791;-64
2022/02/11 01:18:03;;;;;;;;;116.25;109.50;13.60;43.00;;;;;;4934567;29;8823;-64
2022/02/11 01:24:08;;;;;;;;;87.00;79.00;13.60;42.80;;;;;;4934750;29;8894;-65
2022/02/11 01:26:24;;;;;;;;;86.25;75.50;13.50;42.60;;;;;;4926237;29;9009;-66
2022/02/11 01:31:36;;;;;;;;;159.75;145.75;13.40;43.10;;;;;;4950851;29;8804;-66
2022/02/11 01:34:17;;;;;;;;;187.25;172.75;13.00;43.80;;;;;;4957051;28;8784;-66
2022/02/11 01:45:00;;;;;;;;;147.25;139.25;13.10;44.10;;;;;;4959302;28;8784;-65
2022/02/11 01:47:56;;;;;;;;;181.50;164.75;13.20;43.80;;;;;;4958964;28;8835;-66
2022/02/11 01:52:53;;;;;;;;;191.25;167.75;13.20;43.80;;;;;;4959277;28;8776;-66
2022/02/11 01:58:40;;;;;;;;;165.75;160.25;12.90;44.30;;;;;;4958952;28;8796;-65
2022/02/11 02:24:52;;;;;;;;;207.50;188.00;12.40;45.20;;;;;;4922947;28;8998;-64
2022/02/11 02:38:38;;;;;;;;;230.75;211.00;12.40;44.60;;;;;;4958283;28;8811;-64
2022/02/11 02:57:43;;;;;;;;;217.25;204.00;12.10;45.30;;;;;;4957888;28;8914;-63
2022/02/11 04:59:52;;;;;;;;;197.75;174.00;11.20;47.00;;;;;;4942598;28;8792;-64
2022/02/11 05:02:25;;;;;;;;;176.00;166.50;11.30;46.90;;;;;;4955969;28;8815;-64
2022/02/11 05:04:55;;;;;;;;;186.75;170.50;11.30;46.70;;;;;;4955988;29;8788;-64
2022/02/11 05:07:21;;;;;;;;;175.00;162.25;11.10;46.60;;;;;;4955984;29;8903;-65
2022/02/11 05:09:46;;;;;;;;;186.00;174.25;11.10;46.80;;;;;;4958447;28;8811;-63
2022/02/11 05:12:12;;;;;;;;;213.00;193.25;11.20;46.80;;;;;;4959024;28;8788;-64
2022/02/11 05:14:38;;;;;;;;;215.00;198.50;11.00;46.70;;;;;;4959962;28;8807;-64
2022/02/11 05:17:04;;;;;;;;;180.75;161.25;10.60;47.70;;;;;;4959692;28;9482;-64
2022/02/11 05:19:30;;;;;;;;;218.75;197.75;10.70;48.50;;;;;;4959536;28;8780;-65
2022/02/11 05:21:55;;;;;;;;;208.50;194.25;10.70;47.80;;;;;;4959850;28;8810;-64
2022/02/11 05:24:21;;;;;;;;;213.25;192.25;10.70;47.50;;;;;;4959789;28;9573;-63
2022/02/11 05:26:47;;;;;;;;;218.50;190.00;10.80;47.60;;;;;;4959480;28;8788;-63
2022/02/11 05:29:13;;;;;;;;;188.50;180.00;10.80;47.80;;;;;;4959677;28;8810;-65
2022/02/11 05:31:39;;;;;;;;;213.50;188.75;10.80;48.70;;;;;;4959495;28;8816;-64
2022/02/11 05:34:05;;;;;;;;;193.50;181.00;10.90;47.60;;;;;;4959443;28;8835;-65
2022/02/11 05:36:30;;;;;;;;;198.25;180.75;11.00;47.10;;;;;;4959230;28;8903;-65
2022/02/11 05:38:56;;;;;;;;;184.25;169.00;11.20;46.70;;;;;;4954260;29;8933;-63
2022/02/11 05:41:22;;;;;;;;;210.75;193.50;11.20;46.80;;;;;;4946320;29;8805;-66
2022/02/11 05:43:48;;;;;;;;;184.75;175.00;11.30;46.90;;;;;;4957887;28;8796;-64
2022/02/11 05:46:14;;;;;;;;;189.25;175.75;11.30;46.70;;;;;;4951197;29;8787;-66
2022/02/11 05:48:40;;;;;;;;;172.50;157.25;11.40;46.40;;;;;;4940163;29;8819;-66
2022/02/11 05:51:07;;;;;;;;;180.50;165.75;11.40;46.60;;;;;;4940092;29;8798;-66
2022/02/11 05:53:33;;;;;;;;;185.25;168.50;11.40;46.80;;;;;;4940138;29;8779;-67
2022/02/11 05:55:59;;;;;;;;;217.00;192.50;11.30;46.80;;;;;;4940130;29;8809;-69
2022/02/11 05:58:25;;;;;;;;;210.00;191.50;11.30;46.80;;;;;;4939880;29;9485;-69
2022/02/11 06:00:51;;;;;;;;;192.00;180.50;11.30;46.80;;;;;;4939937;29;8929;-67
2022/02/11 06:03:16;;;;;;;;;181.75;162.50;11.30;46.80;;;;;;4939949;29;8817;-65
2022/02/11 06:05:42;;;;;;;;;165.25;150.00;11.40;46.80;;;;;;4939562;29;8807;-67
2022/02/11 06:08:08;;;;;;;;;169.00;158.00;11.50;46.60;;;;;;4943985;28;8916;-64
2022/02/11 06:10:34;;;;;;;;;184.25;165.25;11.50;46.90;;;;;;4945885;28;8788;-65
2022/02/11 06:13:00;;;;;;;;;176.50;160.75;11.40;47.20;;;;;;4952461;28;8776;-66
2022/02/11 06:15:26;;;;;;;;;157.00;141.75;11.50;47.20;;;;;;4946971;29;8897;-66
2022/02/11 06:17:51;;;;;;;;;127.75;126.00;11.50;47.10;;;;;;4946084;28;8957;-66
2022/02/11 06:20:17;;;;;;;;;137.50;127.50;11.60;47.60;;;;;;4955344;28;8772;-65
2022/02/11 06:22:46;;;;;;;;;136.50;127.00;11.50;47.50;;;;;;4957292;28;8851;-68
2022/02/11 06:25:13;;;;;;;;;123.00;113.50;11.50;47.60;;;;;;4958602;28;9778;-66
2022/02/11 06:27:39;;;;;;;;;126.75;118.25;11.60;47.70;;;;;;4958640;28;8780;-67
2022/02/11 06:30:05;;;;;;;;;132.50;123.75;11.60;47.60;;;;;;4958558;28;8812;-65
2022/02/11 06:32:31;;;;;;;;;137.75;130.25;11.70;47.50;;;;;;4958167;28;8828;-65
2022/02/11 06:34:57;;;;;;;;;138.00;123.50;11.60;47.40;;;;;;4958405;28;8903;-64
2022/02/11 06:37:23;;;;;;;;;169.00;155.25;11.70;47.20;;;;;;4958404;28;8808;-67
2022/02/11 06:39:49;;;;;;;;;174.25;162.50;11.60;47.20;;;;;;4962389;28;8762;-66
2022/02/11 06:42:15;;;;;;;;;186.75;173.50;11.70;47.10;;;;;;4977243;28;8875;-66
2022/02/11 06:44:40;;;;;;;;;197.00;183.00;11.70;47.00;;;;;;4977500;28;8762;-67
2022/02/11 06:47:06;;;;;;;;;191.00;180.25;11.80;46.80;;;;;;4977349;28;8805;-66
2022/02/11 06:49:32;;;;;;;;;214.00;195.25;11.70;47.40;;;;;;4977643;28;8785;-65
2022/02/11 06:51:58;;;;;;;;;201.50;183.50;11.80;46.40;;;;;;4977557;28;8812;-67
2022/02/11 06:54:24;;;;;;;;;227.00;212.00;11.80;46.50;;;;;;4977358;28;8765;-64
2022/02/11 06:56:50;;;;;;;;;214.25;196.75;11.80;46.80;;;;;;4968955;28;9443;-64
2022/02/11 06:59:15;;;;;;;;;221.75;206.25;11.80;46.40;;;;;;4949245;28;8931;-66
2022/02/11 07:01:41;;;;;;;;;225.00;202.50;11.90;46.20;;;;;;4958076;28;8914;-67
2022/02/11 07:04:07;;;;;;;;;202.50;188.75;12.10;46.00;;;;;;4949991;28;8788;-64
2022/02/11 07:06:34;;;;;;;;;219.75;196.25;12.10;45.80;;;;;;4938489;28;8802;-66
2022/02/11 07:08:59;;;;;;;;;216.25;194.75;12.20;45.70;;;;;;4938446;29;8817;-64
2022/02/11 07:11:25;;;;;;;;;205.00;193.25;12.30;45.60;;;;;;4972201;28;8765;-66
2022/02/11 07:13:51;;;;;;;;;198.75;177.00;12.30;45.50;;;;;;4977146;28;8778;-67
2022/02/11 07:16:17;;;;;;;;;219.50;202.50;12.40;46.40;;;;;;4970523;28;8792;-66
2022/02/11 07:18:44;;;;;;;;;194.50;178.75;12.50;45.50;;;;;;4956761;28;8923;-67
2022/02/11 07:21:10;;;;;;;;;219.25;198.00;12.60;45.20;;;;;;4955367;28;8895;-64
2022/02/11 07:23:36;;;;;;;;;193.00;181.50;12.60;45.10;;;;;;4953820;28;8824;-65
2022/02/11 07:26:01;;;;;;;;;204.50;187.50;12.70;45.20;;;;;;4949833;28;8895;-67
2022/02/11 07:28:27;;;;;;;;;195.25;185.50;12.80;45.00;;;;;;4950371;28;8795;-67
2022/02/11 07:30:53;;;;;;;;;205.25;190.25;12.80;44.90;;;;;;4953476;28;8824;-67
2022/02/11 07:33:19;;;;;;;;;201.25;182.50;12.90;44.90;;;;;;4937234;29;8851;-67
2022/02/11 07:35:45;;;;;;;;;174.50;167.00;12.80;45.10;;;;;;4953792;28;8793;-68
2022/02/11 07:38:12;;;;;;;;;209.00;187.50;12.90;45.00;;;;;;4957385;28;8796;-66
2022/02/11 07:40:40;;;;;;;;;199.25;177.25;13.10;45.00;;;;;;4967772;28;8750;-68
2022/02/11 07:43:06;;;;;;;;;202.75;190.75;13.00;44.90;;;;;;4976301;28;8839;-66
2022/02/11 07:45:34;;;;;;;;;192.75;179.00;13.10;45.00;;;;;;4968943;28;8792;-65
2022/02/11 07:48:00;;;;;;;;;204.25;191.00;13.20;45.10;;;;;;4956912;28;8776;-66
2022/02/11 07:50:26;;;;;;;;;178.25;170.50;13.30;44.90;;;;;;4957195;28;8895;-66
2022/02/11 07:52:52;;;;;;;;;201.50;186.50;13.40;44.80;;;;;;4956748;28;8803;-67
2022/02/11 07:55:18;;;;;;;;;177.75;166.00;13.50;44.80;;;;;;4956585;28;8784;-65
2022/02/11 07:57:44;;;;;;;;;194.50;178.25;13.40;45.20;;;;;;4956905;28;9447;-67
2022/02/11 08:00:10;;;;;;;;;178.75;168.25;13.40;45.40;;;;;;4956620;28;8902;-66
2022/02/11 08:02:37;;;;;;;;;192.00;183.00;13.50;45.00;;;;;;4956626;28;8804;-66
2022/02/11 08:05:04;;;;;;;;;179.75;171.00;13.80;45.00;;;;;;4956532;28;8819;-67
2022/02/11 08:07:30;;;;;;;;;175.75;169.75;13.90;44.70;;;;;;4956861;28;8799;-66
2022/02/11 08:09:55;;;;;;;;;177.00;162.75;14.00;44.50;;;;;;4961216;28;9420;-66
2022/02/11 08:12:21;;;;;;;;;144.00;136.50;14.10;44.60;;;;;;4975788;28;8782;-66
2022/02/11 08:14:47;;;;;;;;;147.75;132.00;14.10;44.50;;;;;;4976070;28;9447;-65
2022/02/11 08:17:13;;;;;;;;;172.00;158.75;14.20;44.60;;;;;;4974701;28;8825;-66
2022/02/11 08:19:38;;;;;;;;;164.50;146.25;14.30;44.40;;;;;;4976060;28;8781;-66
2022/02/11 08:22:04;;;;;;;;;164.00;150.50;14.40;44.20;;;;;;4955189;28;8826;-67
2022/02/11 08:24:30;;;;;;;;;170.25;157.00;14.50;44.00;;;;;;4938926;29;8791;-67
2022/02/11 08:26:56;;;;;;;;;153.00;132.75;14.60;43.90;;;;;;4949102;28;8820;-67
2022/02/11 08:29:25;;;;;;;;;176.00;165.00;14.70;43.80;;;;;;4956164;28;8879;-68
2022/02/11 08:31:55;;;;;;;;;174.75;164.50;14.90;43.50;;;;;;4954937;28;8788;-65
2022/02/11 08:34:21;;;;;;;;;185.75;172.00;14.90;43.30;;;;;;4956109;28;8795;-66
2022/02/11 08:36:47;;;;;;;;;173.75;160.25;15.00;43.10;;;;;;4949116;28;8853;-65
2022/02/11 08:39:14;;;;;;;;;169.00;157.00;15.10;43.60;;;;;;4937001;29;8790;-66
2022/02/11 08:41:40;;;;;;;;;187.25;170.50;15.20;43.20;;;;;;4974300;28;9653;-66
2022/02/11 08:44:06;;;;;;;;;172.25;162.00;15.30;44.30;;;;;;4975388;28;8893;-67
2022/02/11 08:46:32;;;;;;;;;193.00;180.75;15.40;43.20;;;;;;4975691;28;8843;-66
2022/02/11 08:48:58;;;;;;;;;169.50;160.50;15.60;42.90;;;;;;4975557;28;8785;-66
2022/02/11 08:51:24;;;;;;;;;171.00;161.25;15.60;42.80;;;;;;4975687;28;9459;-66
2022/02/11 08:53:51;;;;;;;;;170.50;160.00;15.70;43.70;;;;;;4975159;28;8831;-67
2022/02/11 08:56:17;;;;;;;;;166.25;153.00;15.80;42.90;;;;;;4974961;28;8872;-67
2022/02/11 08:58:43;;;;;;;;;170.50;161.75;16.00;43.00;;;;;;4975488;28;8818;-67
2022/02/11 09:01:09;;;;;;;;;162.00;152.75;16.00;42.50;;;;;;4975593;28;8809;-66
2022/02/11 09:03:35;;;;;;;;;163.75;158.00;16.00;43.70;;;;;;4975082;28;8805;-67
2022/02/11 09:06:04;;;;;;;;;167.25;157.00;16.00;43.60;;;;;;4975162;28;8777;-66
2022/02/11 09:08:33;;;;;;;;;167.50;157.50;16.10;43.30;;;;;;4974974;28;8805;-66
2022/02/11 09:11:03;;;;;;;;;159.25;150.75;16.30;42.90;;;;;;4975090;28;8802;-67
2022/02/11 09:13:29;;;;;;;;;150.50;137.25;16.40;43.20;;;;;;4975306;28;8785;-67
2022/02/11 09:15:56;;;;;;;;;126.00;119.50;16.50;42.70;;;;;;4975188;28;8868;-66
2022/02/11 09:18:22;;;;;;;;;116.75;107.25;16.60;42.70;;;;;;4974945;28;8884;-66
2022/02/11 09:20:49;;;;;;;;;105.75;93.25;16.70;43.20;;;;;;4953562;28;8836;-67
2022/02/11 09:23:17;;;;;;;;;106.25;100.25;16.70;42.20;;;;;;4950234;28;8874;-67
2022/02/11 09:25:43;;;;;;;;;78.25;68.00;16.80;42.00;;;;;;4947587;29;8889;-66
2022/02/11 09:28:10;;;;;;;;;74.00;57.25;16.70;42.40;;;;;;4951354;29;8943;-67
2022/02/11 09:30:35;;;;;;;;;72.50;57.25;16.70;41.80;;;;;;4955913;28;8846;-68
2022/02/11 09:33:01;;;;;;;;;72.00;57.75;17.00;41.30;;;;;;4942661;29;9299;-66
2022/02/11 09:35:29;;;;;;;;;68.50;54.50;17.20;40.90;;;;;;4943107;29;9417;-67
2022/02/11 09:37:59;;;;;;;;;67.25;53.00;17.30;41.30;;;;;;4943418;28;8820;-66
2022/02/11 09:40:25;;;;;;;;;67.00;53.25;17.30;40.30;;;;;;4964077;28;8892;-67
2022/02/11 09:42:55;;;;;;;;;59.00;47.00;17.40;40.60;;;;;;4954293;28;8803;-66
2022/02/11 09:45:23;;;;;;;;;58.25;48.50;17.40;40.30;;;;;;4946932;29;8802;-66
2022/02/11 09:47:52;;;;;;;;;56.00;48.75;17.50;39.40;;;;;;4945264;28;9481;-66
2022/02/11 09:50:22;;;;;;;;;51.50;44.00;17.60;39.20;;;;;;4941016;29;8819;-68
2022/02/11 09:52:53;;;;;;;;;53.25;44.00;17.70;39.70;;;;;;4949084;28;8813;-69
2022/02/11 09:55:33;;;;;;;;;52.50;44.00;17.80;38.70;;;;;;4949848;28;8828;-67
2022/02/11 09:58:00;;;;;;;;;56.00;45.00;18.00;38.70;;;;;;4942197;29;8826;-67
2022/02/11 10:00:27;;;;;;;;;52.75;44.50;18.20;38.20;;;;;;4950518;29;8846;-66
2022/02/11 10:02:56;;;;;;;;;37.50;35.50;18.50;37.30;;;;;;4948644;28;8788;-67
2022/02/11 10:05:33;;;;;;;;;45.75;39.50;18.60;36.80;;;;;;4950119;29;8798;-66
2022/02/11 10:08:00;;;;;;;;;53.25;41.75;18.50;36.00;;;;;;4939649;29;8902;-66
2022/02/11 10:10:42;;;;;;;;;45.50;38.00;18.60;36.10;;;;;;4956887;28;8782;-67
2022/02/11 10:13:09;;;;;;;;;42.00;38.00;18.90;35.50;;;;;;4977936;28;8773;-66
2022/02/11 10:15:38;;;;;;;;;39.75;36.75;18.80;35.10;;;;;;4974232;28;8904;-68
2022/02/11 10:18:07;;;;;;;;;41.25;36.50;18.60;35.20;;;;;;4950733;28;8834;-66
2022/02/11 10:20:48;;;;;;;;;41.50;36.75;18.40;34.80;;;;;;4954255;28;8799;-67
2022/02/11 10:23:16;;;;;;;;;36.33;32.33;18.90;34.90;;;;;;4939673;29;8791;-67
2022/02/11 10:25:58;;;;;;;;;30.00;29.33;19.20;33.30;;;;;;4939336;29;8795;-67
2022/02/11 10:28:26;;;;;;;;;29.33;25.67;19.50;32.60;;;;;;4946706;28;8788;-68
2022/02/11 10:31:25;;;;;;;;;29.33;27.67;19.90;32.00;;;;;;4958775;28;8827;-67
2022/02/11 10:34:11;;;;;;;;;25.00;22.33;20.90;30.40;;;;;;4917876;29;8821;-66
2022/02/11 10:36:44;;;;;;;;;26.00;25.00;21.70;29.60;;;;;;4907345;29;8842;-68
2022/02/11 10:39:15;;;;;;;;;23.67;23.67;22.00;28.20;;;;;;4899191;29;8810;-68
2022/02/11 10:41:46;;;;;;;;;28.67;27.33;22.70;28.40;;;;;;4935879;29;9366;-68
2022/02/11 10:44:15;;;;;;;;;24.00;22.67;25.60;26.70;;;;;;4921115;29;9444;-66
2022/02/11 10:46:47;;;;;;;;;22.33;19.67;30.10;23.60;;;;;;4911278;29;9464;-68
2022/02/11 10:49:14;;;;;;;;;19.00;19.00;33.50;20.50;;;;;;4913691;29;8796;-68
2022/02/11 10:51:44;;;;;;;;;14.75;14.75;35.90;18.50;;;;;;4909936;29;11711;-68
2022/02/11 10:54:29;;;;;;;;;13.75;13.75;37.20;16.80;;;;;;4907953;29;11604;-67
2022/02/11 10:56:57;;;;;;;;;13.25;13.25;38.30;15.70;;;;;;4898569;29;12239;-69
2022/02/11 10:59:31;;;;;;;;;15.00;15.00;39.40;15.60;;;;;;4898624;29;11567;-69
2022/02/11 11:02:02;;;;;;;;;9.25;9.25;39.90;14.40;;;;;;4898669;29;11623;-65
2022/02/11 11:04:28;;;;;;;;;13.50;13.50;40.70;14.40;;;;;;4898215;29;11569;-67
2022/02/11 11:06:55;;;;;;;;;15.50;15.50;41.50;14.20;;;;;;4897562;29;11602;-65
2022/02/11 11:09:25;;;;;;;;;15.75;15.75;42.00;13.70;;;;;;4915644;28;11564;-68
2022/02/11 11:11:52;;;;;;;;;17.25;17.25;41.20;13.40;;;;;;4946664;29;11586;-69
2022/02/11 11:14:19;;;;;;;;;22.25;21.50;40.50;13.60;;;;;;4938332;29;11574;-70
2022/02/11 11:16:47;;;;;;;;;21.75;21.00;40.20;13.90;;;;;;4938405;29;11584;-67
2022/02/11 11:19:14;;;;;;;;;17.50;17.50;40.00;14.10;;;;;;4938177;29;11585;-69
2022/02/11 11:22:15;;;;;;;;;15.00;15.00;40.80;13.60;;;;;;4941735;28;11719;-66
2022/02/11 11:24:45;;;;;;;;;15.00;15.00;41.90;13.20;;;;;;4943501;29;11670;-66
2022/02/11 11:27:11;;;;;;;;;16.00;16.00;43.00;12.90;;;;;;4937827;29;11696;-66
2022/02/11 11:29:36;;;;;;;;;16.75;16.75;43.70;12.60;;;;;;4950844;28;11722;-65
2022/02/11 11:32:05;;;;;;;;;16.50;16.50;44.30;12.20;;;;;;4956827;28;11707;-68
2022/02/11 11:34:35;;;;;;;;;15.25;15.25;44.60;11.90;;;;;;4957084;28;8910;-66
2022/02/11 11:37:11;;;;;;;;;13.25;13.25;43.90;11.80;;;;;;4956941;28;11572;-67
2022/02/11 11:39:40;;;;;;;;;18.00;18.00;44.30;12.30;;;;;;4958996;28;11551;-65
2022/02/11 11:42:17;;;;;;;;;17.00;17.00;44.90;12.00;;;;;;4976280;28;11568;-68
2022/02/11 11:44:52;;;;;;;;;10.00;10.00;45.60;11.90;;;;;;4976341;28;11664;-68
2022/02/11 11:47:37;;;;;;;;;9.25;9.25;46.00;11.20;;;;;;4976163;28;11557;-68
2022/02/11 11:50:06;;;;;;;;;9.50;9.50;46.00;10.80;;;;;;4976412;28;11507;-67
2022/02/11 11:52:42;;;;;;;;;8.75;8.75;46.10;10.80;;;;;;4975762;28;12028;-65
2022/02/11 11:55:15;;;;;;;;;7.00;7.00;46.50;10.90;;;;;;4947278;28;12177;-68
2022/02/11 11:57:41;;;;;;;;;11.00;11.00;45.80;10.90;;;;;;4951590;28;11642;-68
2022/02/11 12:00:08;;;;;;;;;9.50;9.50;46.80;11.60;;;;;;4950287;28;11550;-68
2022/02/11 12:02:35;;;;;;;;;8.25;8.25;47.60;10.30;;;;;;4948126;28;8788;-67
2022/02/11 12:05:04;;;;;;;;;10.75;10.75;48.00;10.30;;;;;;4945098;28;11506;-69
2022/02/11 12:07:34;;;;;;;;;7.25;7.25;48.60;10.30;;;;;;4944243;28;11732;-67
2022/02/11 12:10:02;;;;;;;;;8.50;8.50;48.60;10.10;;;;;;4946669;28;11527;-67
2022/02/11 12:12:30;;;;;;;;;11.00;11.00;49.10;10.00;;;;;;4945177;28;11540;-69
2022/02/11 12:15:02;;;;;;;;;10.75;10.75;48.90;9.80;;;;;;4948110;29;12282;-69
2022/02/11 12:17:29;;;;;;;;;15.75;15.75;49.20;9.70;;;;;;4948643;28;12197;-67
2022/02/11 12:19:56;;;;;;;;;15.75;15.75;49.20;9.50;;;;;;4951560;28;11638;-67
2022/02/11 12:22:25;;;;;;;;;13.00;13.00;49.40;9.80;;;;;;4955578;28;11571;-67
2022/02/11 12:27:51;;;;;;;;;12.00;12.00;50.20;9.70;;;;;;4949010;28;11532;-68
2022/02/11 12:30:18;;;;;;;;;13.50;13.50;50.50;9.50;;;;;;4953254;28;11635;-67
2022/02/11 12:32:53;;;;;;;;;12.25;12.25;50.30;9.20;;;;;;4935814;29;11686;-67
2022/02/11 12:35:23;;;;;;;;;16.00;16.00;50.10;9.30;;;;;;4943129;28;11622;-70
2022/02/11 12:37:50;;;;;;;;;13.00;13.00;49.80;9.10;;;;;;4945236;28;11591;-70
2022/02/11 12:40:27;;;;;;;;;21.00;21.00;49.60;9.20;;;;;;4952625;28;11565;-69
2022/02/11 12:43:00;;;;;;;;;26.00;26.00;49.40;9.10;;;;;;4946578;28;11604;-68
2022/02/11 12:45:32;;;;;;;;;27.33;27.33;48.50;9.20;;;;;;4939591;28;8839;-67
2022/02/11 12:47:59;;;;;;;;;27.00;26.67;46.70;9.50;;;;;;4937239;29;8783;-69
2022/02/11 12:50:36;;;;;;;;;25.00;25.00;46.50;9.90;;;;;;4940630;28;9532;-70
2022/02/11 12:53:07;;;;;;;;;25.00;25.00;47.00;10.20;;;;;;4943651;28;8893;-69
2022/02/11 12:55:36;;;;;;;;;22.67;22.67;46.60;9.70;;;;;;4936900;29;8798;-69
2022/02/11 12:58:04;;;;;;;;;28.00;27.00;44.70;10.30;;;;;;4942754;29;8839;-69
2022/02/11 13:00:32;;;;;;;;;36.33;33.33;45.30;10.30;;;;;;4941437;28;9466;-70
2022/02/11 13:03:00;;;;;;;;;31.67;30.33;45.00;10.70;;;;;;4947703;29;8959;-68
2022/02/11 13:05:30;;;;;;;;;31.00;30.00;44.20;10.20;;;;;;4943627;29;8788;-68
2022/02/11 13:07:58;;;;;;;;;30.33;29.67;44.40;10.70;;;;;;4940493;28;8806;-68
2022/02/11 13:10:27;;;;;;;;;27.00;27.00;44.50;10.40;;;;;;4939396;28;8807;-70
2022/02/11 13:12:55;;;;;;;;;27.67;27.67;44.90;10.80;;;;;;4941397;29;8810;-69
2022/02/11 13:15:27;;;;;;;;;32.00;31.00;45.70;11.00;;;;;;4946290;28;8824;-68
2022/02/11 13:17:54;;;;;;;;;30.00;29.00;45.30;10.10;;;;;;4941768;29;8811;-67
2022/02/11 13:20:23;;;;;;;;;30.67;30.33;45.20;10.60;;;;;;4945347;28;8775;-68
2022/02/11 13:22:51;;;;;;;;;29.67;29.33;45.30;10.70;;;;;;4944742;28;8793;-68
2022/02/11 13:25:19;;;;;;;;;20.00;20.00;44.30;10.20;;;;;;4954406;29;8780;-67
2022/02/11 13:27:53;;;;;;;;;26.33;26.33;43.60;10.70;;;;;;4954197;29;11571;-67
2022/02/11 13:30:27;;;;;;;;;24.33;24.33;43.70;10.60;;;;;;4955889;28;8903;-66
2022/02/11 13:32:55;;;;;;;;;23.00;23.00;43.80;10.80;;;;;;4955313;28;8820;-67
2022/02/11 13:35:22;;;;;;;;;26.67;26.67;44.10;10.70;;;;;;4950225;28;11573;-66
2022/02/11 13:37:51;;;;;;;;;21.00;21.00;44.30;10.80;;;;;;4955431;28;11670;-66
2022/02/11 13:40:23;;;;;;;;;21.00;21.00;44.30;10.80;;;;;;4956625;28;11664;-68
2022/02/11 13:43:03;;;;;;;;;22.00;22.00;44.30;10.40;;;;;;4957107;28;11586;-67
2022/02/11 13:45:48;;;;;;;;;21.00;21.00;44.40;10.60;;;;;;4954182;28;11790;-67
2022/02/11 13:48:16;;;;;;;;;24.67;24.67;44.20;10.30;;;;;;4956917;28;11597;-66
2022/02/11 13:50:55;;;;;;;;;28.00;28.00;43.30;10.50;;;;;;4958173;28;11582;-65
2022/02/11 13:53:32;;;;;;;;;22.00;22.00;42.70;11.00;;;;;;4957759;28;11573;-66
2022/02/11 13:55:58;;;;;;;;;25.33;25.33;42.30;10.80;;;;;;4956238;28;11563;-65
2022/02/11 13:58:24;;;;;;;;;22.00;22.00;41.50;10.90;;;;;;4957905;28;11598;-68
2022/02/11 14:00:50;;;;;;;;;24.00;24.00;40.80;12.30;;;;;;4956403;28;11587;-67
2022/02/11 14:03:24;;;;;;;;;26.67;26.67;41.10;12.00;;;;;;4950893;28;8905;-67
2022/02/11 14:05:54;;;;;;;;;27.33;27.33;41.60;11.80;;;;;;4946295;29;8845;-64
2022/02/11 14:08:21;;;;;;;;;23.67;23.67;41.70;11.60;;;;;;4939312;29;11565;-68
2022/02/11 14:10:48;;;;;;;;;20.33;20.33;41.80;11.40;;;;;;4950684;28;12233;-69
2022/02/11 14:13:14;;;;;;;;;20.67;20.67;41.80;11.50;;;;;;4958392;28;11567;-68
2022/02/11 14:15:41;;;;;;;;;18.00;18.00;41.70;11.10;;;;;;4958784;28;11545;-70
2022/02/11 14:18:07;;;;;;;;;18.67;18.67;41.60;12.20;;;;;;4965724;28;11588;-70
2022/02/11 14:20:38;;;;;;;;;19.33;19.33;41.40;11.00;;;;;;4954210;28;11563;-68
2022/02/11 14:23:14;;;;;;;;;19.00;19.00;41.40;11.50;;;;;;4947088;28;11560;-68
2022/02/11 14:25:42;;;;;;;;;23.67;23.67;40.90;11.30;;;;;;4939115;29;11601;-69
2022/02/11 14:28:09;;;;;;;;;20.00;20.00;40.80;11.60;;;;;;4938839;29;11671;-65
2022/02/11 14:30:38;;;;;;;;;19.75;19.75;39.90;11.50;;;;;;4939078;29;11630;-65
2022/02/11 14:33:05;;;;;;;;;20.67;20.67;38.80;12.00;;;;;;4938785;29;11713;-65
2022/02/11 14:35:31;;;;;;;;;16.25;16.25;38.30;12.60;;;;;;4938902;29;11774;-65
2022/02/11 14:37:57;;;;;;;;;20.25;20.25;37.30;12.50;;;;;;4938861;29;11616;-65
2022/02/11 14:40:23;;;;;;;;;20.75;20.75;35.80;13.40;;;;;;4938632;29;11579;-68
2022/02/11 14:42:48;;;;;;;;;19.33;19.33;34.70;14.30;;;;;;4951227;28;8814;-68
2022/02/11 14:45:14;;;;;;;;;16.50;16.50;33.40;15.00;;;;;;4958385;28;8791;-69
2022/02/11 14:47:40;;;;;;;;;19.00;19.00;31.90;15.70;;;;;;4962921;28;8885;-70
2022/02/11 14:50:06;;;;;;;;;20.00;20.00;30.70;16.70;;;;;;4977583;28;8903;-66
2022/02/11 14:52:33;;;;;;;;;14.00;14.00;29.50;17.50;;;;;;4977186;28;8797;-69
2022/02/11 14:54:59;;;;;;;;;12.67;12.67;28.10;17.90;;;;;;4977450;28;11567;-67
2022/02/11 14:57:27;;;;;;;;;19.00;19.00;27.30;19.00;;;;;;4976877;28;11585;-66
2022/02/11 14:59:53;;;;;;;;;23.67;23.00;27.10;19.80;;;;;;4977197;28;8860;-67
2022/02/11 15:02:19;;;;;;;;;30.00;30.00;26.90;19.20;;;;;;4977161;28;8778;-67
2022/02/11 15:04:46;;;;;;;;;41.33;36.67;26.50;19.90;;;;;;4977430;28;9419;-66
2022/02/11 15:07:13;;;;;;;;;45.33;39.33;25.80;20.30;;;;;;4977143;28;8778;-71
2022/02/11 15:09:39;;;;;;;;;35.00;33.67;25.50;21.50;;;;;;4977393;28;8804;-72
2022/02/11 15:12:08;;;;;;;;;38.00;35.33;24.90;21.00;;;;;;4977000;28;8796;-70
2022/02/11 15:14:34;;;;;;;;;37.00;34.00;24.80;21.80;;;;;;4977038;28;8761;-70
2022/02/11 15:17:00;;;;;;;;;30.00;29.00;24.70;21.50;;;;;;4977146;28;8789;-71
2022/02/11 15:19:26;;;;;;;;;41.33;35.33;24.20;21.60;;;;;;4976812;28;8797;-69
2022/02/11 15:21:52;;;;;;;;;43.50;38.50;23.70;22.40;;;;;;4976865;28;8793;-69
2022/02/11 15:24:18;;;;;;;;;34.67;33.33;23.60;22.80;;;;;;4976886;28;8808;-69
2022/02/11 15:26:44;;;;;;;;;47.00;39.75;23.30;23.30;;;;;;4977101;28;8801;-68
2022/02/11 15:29:10;;;;;;;;;52.00;44.25;23.20;23.60;;;;;;4976640;28;8786;-67
2022/02/11 15:31:38;;;;;;;;;50.50;41.75;23.10;23.60;;;;;;4976849;28;8817;-68
2022/02/11 15:34:05;;;;;;;;;49.00;40.25;23.00;23.60;;;;;;4976667;28;8789;-68
2022/02/11 15:36:32;;;;;;;;;47.50;39.00;22.70;24.00;;;;;;4976788;28;9477;-70
2022/02/11 15:38:58;;;;;;;;;53.25;44.00;22.40;24.30;;;;;;4976468;28;8947;-70
2022/02/11 15:41:24;;;;;;;;;53.00;43.00;22.30;24.70;;;;;;4976469;28;8796;-70
2022/02/11 15:43:50;;;;;;;;;66.00;53.00;22.20;24.80;;;;;;4956746;28;8798;-70
2022/02/11 15:46:16;;;;;;;;;74.00;56.50;22.10;24.80;;;;;;4948310;28;9898;-70
2022/02/11 15:48:42;;;;;;;;;75.50;60.50;21.80;25.10;;;;;;4953455;28;8814;-69
2022/02/11 15:51:10;;;;;;;;;77.75;63.50;21.70;25.30;;;;;;4945360;28;8798;-69
2022/02/11 15:53:36;;;;;;;;;82.00;73.50;21.60;25.70;;;;;;4950638;28;8879;-70
2022/02/11 15:56:03;;;;;;;;;82.75;73.00;21.40;26.10;;;;;;4951895;28;8815;-70
2022/02/11 15:58:29;;;;;;;;;82.75;75.50;21.30;26.30;;;;;;4957050;28;9490;-71
2022/02/11 16:00:54;;;;;;;;;79.50;70.00;21.20;26.50;;;;;;4949746;28;8819;-71
2022/02/11 16:03:21;;;;;;;;;80.50;70.00;21.10;26.70;;;;;;4943727;28;8779;-71
2022/02/11 16:05:47;;;;;;;;;86.75;71.25;21.10;26.80;;;;;;4945749;28;8931;-72
2022/02/11 16:08:13;;;;;;;;;85.50;78.25;21.00;26.90;;;;;;4948266;28;8892;-68
2022/02/11 16:10:39;;;;;;;;;79.25;66.00;21.00;27.00;;;;;;4946172;29;8786;-68
2022/02/11 16:13:05;;;;;;;;;72.00;58.50;21.00;27.00;;;;;;4937190;29;8822;-68
2022/02/11 16:15:30;;;;;;;;;75.00;65.50;20.90;27.00;;;;;;4937273;29;8783;-68
2022/02/11 16:18:06;;;;;;;;;77.25;62.50;20.90;27.00;;;;;;4951403;28;8833;-69
2022/02/11 16:20:40;;;;;;;;;77.50;62.00;20.90;27.10;;;;;;4975980;28;8789;-72
2022/02/11 16:23:08;;;;;;;;;80.00;67.75;20.90;27.40;;;;;;4975898;28;8778;-71
2022/02/11 16:25:37;;;;;;;;;84.50;74.50;20.80;27.20;;;;;;4959063;28;8836;-71